To NAV CANADA Home Page Login to a new session Search on AWWS site Feedback and Comments Disclaimer Vers la page française équivalente Tips FAQ What's new on the site To the Forecasts and Observations / NOTAM section To "File a Flight Plan" website Publications and other links Update of the User's profile FIC Telephone Numbers My Weather Data Folder Route Weather Data Regional Weather Data Local Weather Data To the Forecasts and Observations / NOTAM section
Request Generated 07/28/2016 at 16:26:09 UTC . Weather information available at that time is displayed.

METAR/TAF

LLOYDMINSTER/AB    (show WxCam)

METAR CYLL 281600Z 28004KT 240V300 15SM BKN130 BKN250 23/16 A3012 RMK
AC5CI2 SLP202 DENSITY ALT 3300FT=
METAR CYLL 281500Z 25004KT 15SM BKN130 BKN250 20/16 A3012 RMK AC5CI2
SLP200 DENSITY ALT 3100FT=
METAR CYLL 281400Z 25003KT 15SM BKN130 BKN250 19/16 A3012 RMK AC5CI1
SLP200 DENSITY ALT 2900FT=

TAF CYLL 281141Z 2812/2824 24006KT P6SM SCT200 PROB30 2812/2814 1/2SM
FG
FM281800 29007KT P6SM SCT060 BKN120 TEMPO 2818/2824 P6SM -SHRA
BKN060 PROB40 2819/2824 2SM TSRA BKN040CB
RMK FCST BASED ON AUTO OBS. NXT FCST BY 281800Z=
Your time UTC time
Weather data provided by Environment Canada and NAV CANADA